createdAt,value
2019-03-05T00:01:09.381Z,59.95
2019-03-05T00:03:39.731Z,60.78
2019-03-05T00:06:10.335Z,61.15
2019-03-05T00:08:40.794Z,61.69
2019-03-05T00:11:11.108Z,61.03
2019-03-05T00:13:41.618Z,61.36
2019-03-05T00:16:11.833Z,61.58
2019-03-05T00:18:42.017Z,62.09
2019-03-05T00:21:12.042Z,62.39
2019-03-05T00:23:50.309Z,62.20
2019-03-05T00:26:23.568Z,62.38
2019-03-05T00:29:38.800Z,62.89
2019-03-05T00:32:09.357Z,62.92
2019-03-05T00:35:11.400Z,63.21
2019-03-05T00:38:06.469Z,63.51
2019-03-05T00:41:00.799Z,63.48
2019-03-05T00:43:55.983Z,63.35
2019-03-05T00:46:52.434Z,63.21
2019-03-05T00:49:42.469Z,63.29
2019-03-05T00:52:36.054Z,62.61
2019-03-05T00:55:43.124Z,62.36
2019-03-05T00:58:46.039Z,63.10
2019-03-05T01:01:37.923Z,64.00
2019-03-05T01:04:45.073Z,63.97
2019-03-05T01:07:15.259Z,63.42
2019-03-05T01:09:45.557Z,62.72
2019-03-05T01:12:16.502Z,62.17
2019-03-05T01:14:46.675Z,62.44
2019-03-05T01:17:17.187Z,63.18
2019-03-05T01:19:47.480Z,63.45
2019-03-05T01:22:18.025Z,63.41
2019-03-05T01:24:48.718Z,63.07
2019-03-05T01:27:19.120Z,62.95
2019-03-05T01:29:49.473Z,62.55
2019-03-05T01:32:35.152Z,62.58
2019-03-05T01:35:24.926Z,62.85
2019-03-05T01:37:55.182Z,62.82
2019-03-05T01:40:34.715Z,62.87
2019-03-05T01:43:04.917Z,61.88
2019-03-05T01:45:35.284Z,62.07
2019-03-05T01:48:05.898Z,62.22
2019-03-05T01:50:36.249Z,62.35
2019-03-05T01:53:06.576Z,62.47
2019-03-05T01:55:36.875Z,62.78
2019-03-05T01:58:07.141Z,62.20
2019-03-05T02:00:38.631Z,62.00
2019-03-05T02:03:09.214Z,61.40
2019-03-05T02:05:39.528Z,61.69
2019-03-05T02:08:09.934Z,61.29
2019-03-05T02:10:40.599Z,59.88
2019-03-05T02:13:10.923Z,60.42
2019-03-05T02:15:41.189Z,60.13
2019-03-05T02:18:12.889Z,60.53
2019-03-05T02:20:43.328Z,59.96
2019-03-05T02:23:21.190Z,60.26
2019-03-05T02:26:29.628Z,60.88
2019-03-05T02:29:34.156Z,60.22
2019-03-05T02:32:47.388Z,58.97
2019-03-05T02:36:00.217Z,58.67
2019-03-05T02:39:07.745Z,59.63
2019-03-05T02:42:03.106Z,59.79
2019-03-05T02:44:58.932Z,59.82
2019-03-05T02:48:04.111Z,59.19
2019-03-05T02:51:01.916Z,59.53
2019-03-05T02:53:44.743Z,58.90
2019-03-05T02:56:38.120Z,58.93
2019-03-05T02:59:06.077Z,59.05
2019-03-05T03:01:51.965Z,59.34
2019-03-05T03:04:24.040Z,59.13
2019-03-05T03:06:54.402Z,58.29
2019-03-05T03:10:08.312Z,58.54
2019-03-05T03:12:38.989Z,58.22
2019-03-05T03:15:12.495Z,58.56
2019-03-05T03:17:42.939Z,57.69
2019-03-05T03:20:15.020Z,57.71
2019-03-05T03:22:45.480Z,58.16
2019-03-05T03:25:23.647Z,58.36
2019-03-05T03:27:53.955Z,58.08
2019-03-05T03:30:25.331Z,58.36
2019-03-05T03:32:55.746Z,59.99
2019-03-05T03:35:26.224Z,60.82
2019-03-05T03:37:56.742Z,60.61
2019-03-05T03:40:27.061Z,61.08
2019-03-05T03:42:57.542Z,61.83
2019-03-05T03:45:28.476Z,61.41
2019-03-05T03:47:58.947Z,61.49
2019-03-05T03:50:28.938Z,59.87
2019-03-05T03:52:59.403Z,59.67
2019-03-05T03:55:30.024Z,60.28
2019-03-05T03:58:00.541Z,60.32
2019-03-05T04:00:30.803Z,60.30
2019-03-05T04:03:01.122Z,60.33
2019-03-05T04:05:31.427Z,60.50
2019-03-05T04:08:01.722Z,60.83
2019-03-05T04:10:31.917Z,60.70
2019-03-05T04:13:02.215Z,60.27
2019-03-05T04:15:32.825Z,60.18
2019-03-05T04:18:03.002Z,60.31
2019-03-05T04:20:41.786Z,60.17
2019-03-05T04:23:11.956Z,61.19
2019-03-05T04:25:42.264Z,61.89
2019-03-05T04:28:12.470Z,62.41
2019-03-05T04:30:42.836Z,62.72
2019-03-05T04:33:13.132Z,61.63
2019-03-05T04:35:43.581Z,61.09
2019-03-05T04:38:13.965Z,61.60
2019-03-05T04:40:44.287Z,62.08
2019-03-05T04:43:14.675Z,61.80
2019-03-05T04:46:09.425Z,61.62
2019-03-05T04:48:39.847Z,61.68
2019-03-05T04:51:17.159Z,61.85
2019-03-05T04:53:47.548Z,61.91
2019-03-05T04:56:17.969Z,61.10
2019-03-05T04:58:48.259Z,61.30
2019-03-05T05:01:18.411Z,60.68
2019-03-05T05:03:48.767Z,61.00
2019-03-05T05:06:19.215Z,61.57
2019-03-05T05:08:49.554Z,60.72
2019-03-05T05:11:19.459Z,60.72
2019-03-05T05:13:49.811Z,60.74
2019-03-05T05:16:20.070Z,60.42
2019-03-05T05:18:50.565Z,60.57
2019-03-05T05:21:20.825Z,60.48
2019-03-05T05:23:51.250Z,59.78
2019-03-05T05:26:21.672Z,60.05
2019-03-05T05:28:52.118Z,60.22
2019-03-05T05:31:22.153Z,60.35
2019-03-05T05:33:52.538Z,60.44
2019-03-05T05:36:22.975Z,60.47
2019-03-05T05:38:53.199Z,60.43
2019-03-05T05:41:22.917Z,60.68
2019-03-05T05:43:53.238Z,60.85
2019-03-05T05:46:23.678Z,61.08
2019-03-05T05:48:53.739Z,60.95
2019-03-05T05:51:23.773Z,60.37
2019-03-05T05:53:54.098Z,59.78
2019-03-05T05:56:24.248Z,60.42
2019-03-05T05:58:54.889Z,59.93
2019-03-05T06:01:25.060Z,59.78
2019-03-05T06:03:55.362Z,60.13
2019-03-05T06:06:25.639Z,60.16
2019-03-05T06:08:55.870Z,60.22
2019-03-05T06:11:26.482Z,59.62
2019-03-05T06:13:56.721Z,59.97
2019-03-05T06:16:26.757Z,60.25
2019-03-05T06:18:57.106Z,60.03
2019-03-05T06:21:27.622Z,59.49
2019-03-05T06:23:57.930Z,58.99
2019-03-05T06:26:28.405Z,58.65
2019-03-05T06:28:58.970Z,58.42
2019-03-05T06:31:29.575Z,58.18
2019-03-05T06:33:59.638Z,58.41
2019-03-05T06:36:45.039Z,57.71
2019-03-05T06:39:15.078Z,57.18
2019-03-05T06:41:45.398Z,54.94
2019-03-05T06:44:15.834Z,55.59
2019-03-05T06:46:46.138Z,56.03
2019-03-05T06:49:16.464Z,55.56
2019-03-05T06:51:46.815Z,54.90
2019-03-05T06:54:17.261Z,54.39
2019-03-05T06:56:47.797Z,55.06
2019-03-05T06:59:18.095Z,55.35
2019-03-05T07:01:48.609Z,55.62
2019-03-05T07:04:19.076Z,56.06
2019-03-05T07:06:59.278Z,56.15
2019-03-05T07:10:04.381Z,55.71
2019-03-05T07:12:56.526Z,55.30
2019-03-05T07:15:56.668Z,53.92
2019-03-05T07:18:33.207Z,52.49
2019-03-05T07:21:49.132Z,50.47
2019-03-05T07:24:41.817Z,48.11
2019-03-05T07:27:12.418Z,45.25
2019-03-05T07:29:43.152Z,43.00
2019-03-05T07:32:13.415Z,40.55
2019-03-05T07:34:46.067Z,39.76
2019-03-05T07:37:16.326Z,37.54
2019-03-05T07:39:46.769Z,36.83
2019-03-05T07:42:17.337Z,33.12
2019-03-05T07:44:47.579Z,34.03
2019-03-05T07:47:17.444Z,33.03
2019-03-05T07:49:47.385Z,32.66
2019-03-05T07:52:17.564Z,30.21
2019-03-05T07:54:47.591Z,31.16
2019-03-05T07:57:17.927Z,31.75
2019-03-05T07:59:48.329Z,31.98
2019-03-05T08:02:18.235Z,32.16
2019-03-05T08:04:48.190Z,31.31
2019-03-05T08:07:18.647Z,30.53
2019-03-05T08:09:49.077Z,29.41
2019-03-05T08:13:02.352Z,29.45
2019-03-05T08:16:02.339Z,29.12
2019-03-05T08:18:28.800Z,27.75
2019-03-05T08:20:58.771Z,27.93
2019-03-05T08:23:28.742Z,26.68
2019-03-05T08:25:58.915Z,27.99
2019-03-05T08:28:29.184Z,28.61
2019-03-05T08:30:59.094Z,28.80
2019-03-05T08:33:29.517Z,28.49
2019-03-05T08:35:59.711Z,27.94
2019-03-05T08:38:29.875Z,27.09
2019-03-05T08:40:59.979Z,28.14
2019-03-05T08:43:30.403Z,26.74
2019-03-05T08:46:00.824Z,27.39
2019-03-05T08:48:30.758Z,25.71
2019-03-05T08:51:00.660Z,24.58
2019-03-05T08:53:31.173Z,23.86
2019-03-05T08:56:01.530Z,23.52
2019-03-05T08:58:31.714Z,23.42
2019-03-05T09:01:01.837Z,22.16
2019-03-05T09:03:32.274Z,21.92
2019-03-05T09:06:02.754Z,21.59
2019-03-05T09:08:33.111Z,21.47
2019-03-05T09:11:02.817Z,20.10
2019-03-05T09:13:33.324Z,20.00
2019-03-05T09:16:03.683Z,19.28
2019-03-05T09:18:33.651Z,19.36
2019-03-05T09:21:03.890Z,18.83
2019-03-05T09:23:34.411Z,17.95
2019-03-05T09:26:04.757Z,17.02
2019-03-05T09:28:34.632Z,15.49
2019-03-05T09:31:04.844Z,16.24
2019-03-05T09:33:35.197Z,16.29
2019-03-05T09:36:05.852Z,16.63
2019-03-05T09:38:36.122Z,16.67
2019-03-05T09:41:05.799Z,15.98
2019-03-05T09:43:36.088Z,15.71
2019-03-05T09:46:06.552Z,15.71
2019-03-05T09:48:36.875Z,15.25
2019-03-05T09:51:07.239Z,14.29
2019-03-05T09:53:37.410Z,14.03
2019-03-05T09:56:07.510Z,14.04
2019-03-05T09:58:37.890Z,12.99
2019-03-05T10:01:08.493Z,12.43
2019-03-05T10:03:38.181Z,11.61
2019-03-05T10:06:08.268Z,11.63
2019-03-05T10:08:38.435Z,11.43
2019-03-05T10:11:08.686Z,11.15
2019-03-05T10:13:38.915Z,10.34
2019-03-05T10:16:09.490Z,9.41
2019-03-05T10:18:40.118Z,9.87
2019-03-05T10:21:11.947Z,8.81
2019-03-05T10:23:42.397Z,9.35
2019-03-05T10:26:13.035Z,9.04
2019-03-05T10:28:43.629Z,8.75
2019-03-05T10:31:14.001Z,8.96
2019-03-05T10:33:44.550Z,8.36
2019-03-05T10:36:14.896Z,8.03
2019-03-05T10:38:56.584Z,8.66
2019-03-05T10:41:26.309Z,8.49
2019-03-05T10:43:56.622Z,8.79
2019-03-05T10:46:27.203Z,8.06
2019-03-05T10:48:57.594Z,7.77
2019-03-05T10:51:28.656Z,7.99
2019-03-05T10:54:02.312Z,7.69
2019-03-05T10:56:32.466Z,7.27
2019-03-05T10:59:02.342Z,7.20
2019-03-05T11:01:32.305Z,6.63
2019-03-05T11:04:02.948Z,7.29
2019-03-05T11:06:33.549Z,7.79
2019-03-05T11:09:04.429Z,8.40
2019-03-05T11:11:34.608Z,8.96
2019-03-05T11:14:04.970Z,8.96
2019-03-05T11:16:35.182Z,8.63
2019-03-05T11:19:06.199Z,8.59
2019-03-05T11:21:36.609Z,9.32
2019-03-05T11:24:07.551Z,10.43
2019-03-05T11:26:37.850Z,10.00
2019-03-05T11:29:08.327Z,9.98
2019-03-05T11:31:38.625Z,10.19
2019-03-05T11:34:09.275Z,10.60
2019-03-05T11:36:39.421Z,11.29
2019-03-05T11:39:09.938Z,11.73
2019-03-05T11:41:40.249Z,12.10
2019-03-05T11:44:10.560Z,12.10
2019-03-05T11:46:40.807Z,12.36
2019-03-05T11:49:11.285Z,13.01
2019-03-05T11:51:41.787Z,13.35
2019-03-05T11:54:12.164Z,13.35
2019-03-05T11:56:42.577Z,12.84
2019-03-05T11:59:12.861Z,10.98
2019-03-05T12:01:46.189Z,11.28
2019-03-05T12:04:16.512Z,10.39
2019-03-05T12:06:46.893Z,10.04
2019-03-05T12:09:17.341Z,9.12
2019-03-05T12:11:47.926Z,8.65
2019-03-05T12:14:18.513Z,9.60
2019-03-05T12:16:49.007Z,10.57
2019-03-05T12:19:19.384Z,9.52
2019-03-05T12:21:49.706Z,10.03
2019-03-05T12:24:23.913Z,9.51
2019-03-05T12:26:51.493Z,8.83
2019-03-05T12:29:21.652Z,9.57
2019-03-05T12:31:51.969Z,9.26
2019-03-05T12:34:22.358Z,9.50
2019-03-05T12:36:52.688Z,9.75
2019-03-05T12:39:23.745Z,9.73
2019-03-05T12:41:54.022Z,9.45
2019-03-05T12:44:24.522Z,9.41
2019-03-05T12:46:55.076Z,10.27
2019-03-05T12:49:24.901Z,10.48
2019-03-05T12:51:55.127Z,11.12
2019-03-05T12:54:25.607Z,12.29
2019-03-05T12:56:55.500Z,12.47
2019-03-05T12:59:25.636Z,11.68
2019-03-05T13:01:55.725Z,11.67
2019-03-05T13:04:26.047Z,11.75
2019-03-05T13:06:56.510Z,12.15
2019-03-05T13:09:26.704Z,12.16
2019-03-05T13:11:56.933Z,11.89
2019-03-05T13:14:26.943Z,11.96
2019-03-05T13:16:57.126Z,12.41
2019-03-05T13:19:27.110Z,11.67
2019-03-05T13:21:57.458Z,12.09
2019-03-05T13:24:27.754Z,11.55
2019-03-05T13:26:57.839Z,12.46
2019-03-05T13:29:28.063Z,13.04
2019-03-05T13:31:57.869Z,14.03
2019-03-05T13:34:28.218Z,13.75
2019-03-05T13:37:00.796Z,15.24
2019-03-05T13:39:30.642Z,17.04
2019-03-05T13:42:01.165Z,17.51
2019-03-05T13:44:35.713Z,18.43
2019-03-05T13:47:08.538Z,19.08
2019-03-05T13:49:58.903Z,19.17
2019-03-05T13:52:59.972Z,19.85
2019-03-05T13:56:12.043Z,18.61
2019-03-05T13:59:11.646Z,18.88
2019-03-05T14:01:42.483Z,19.98
2019-03-05T14:04:16.951Z,18.81
2019-03-05T14:07:22.510Z,18.90
2019-03-05T14:09:53.749Z,19.32
2019-03-05T14:12:24.073Z,19.53
2019-03-05T14:14:54.498Z,19.76
2019-03-05T14:17:30.140Z,19.25
2019-03-05T14:20:00.549Z,19.87
2019-03-05T14:22:31.032Z,20.37
2019-03-05T14:25:02.938Z,20.77
2019-03-05T14:27:33.826Z,21.29
2019-03-05T14:30:05.100Z,21.26
2019-03-05T14:32:35.549Z,21.36
2019-03-05T14:35:10.798Z,21.33
2019-03-05T14:37:41.674Z,21.42
2019-03-05T14:40:23.990Z,21.79
2019-03-05T14:42:47.941Z,21.84
2019-03-05T14:45:22.202Z,22.29
2019-03-05T14:47:54.046Z,22.36
2019-03-05T14:50:24.742Z,22.79
2019-03-05T14:52:55.230Z,23.27
2019-03-05T14:55:29.996Z,23.81
2019-03-05T14:58:00.565Z,23.88
2019-03-05T15:00:30.911Z,23.97
2019-03-05T15:03:01.668Z,24.29
2019-03-05T15:05:32.172Z,24.30
2019-03-05T15:08:02.726Z,24.93
2019-03-05T15:10:35.919Z,25.58
2019-03-05T15:13:15.259Z,25.05
2019-03-05T15:15:38.767Z,25.76
2019-03-05T15:18:09.450Z,25.27
2019-03-05T15:20:40.001Z,25.82
2019-03-05T15:23:10.711Z,26.18
2019-03-05T15:25:41.401Z,27.09
2019-03-05T15:28:11.754Z,26.73
2019-03-05T15:30:42.294Z,26.71
2019-03-05T15:33:12.986Z,26.94
2019-03-05T15:35:43.554Z,27.73
2019-03-05T15:38:16.174Z,28.10
2019-03-05T15:40:46.764Z,29.25
2019-03-05T15:43:17.493Z,29.35
2019-03-05T15:45:48.123Z,28.88
2019-03-05T15:48:18.568Z,29.23
2019-03-05T15:50:49.272Z,29.37
2019-03-05T15:53:19.915Z,29.96
2019-03-05T15:55:50.331Z,30.59
2019-03-05T15:58:20.880Z,30.54
2019-03-05T16:00:51.903Z,30.69
2019-03-05T16:03:22.331Z,31.09
2019-03-05T16:05:53.832Z,31.40
2019-03-05T16:08:26.189Z,31.50
2019-03-05T16:10:58.671Z,32.05
2019-03-05T16:13:29.175Z,31.96
2019-03-05T16:15:59.587Z,32.30
2019-03-05T16:18:30.291Z,32.03
2019-03-05T16:21:02.588Z,32.00
2019-03-05T16:23:34.037Z,32.59
2019-03-05T16:26:04.559Z,33.07
2019-03-05T16:28:35.022Z,32.76
2019-03-05T16:31:27.515Z,33.04
2019-03-05T16:34:14.281Z,33.57
2019-03-05T16:37:21.187Z,33.49
2019-03-05T16:40:19.273Z,33.15
2019-03-05T16:43:07.611Z,33.38
2019-03-05T16:45:55.775Z,33.73
2019-03-05T16:48:45.550Z,34.30
2019-03-05T16:51:37.502Z,33.57
2019-03-05T16:54:26.959Z,34.47
2019-03-05T16:57:22.378Z,34.15
2019-03-05T17:00:10.463Z,34.38
2019-03-05T17:02:58.761Z,34.72
2019-03-05T17:05:48.018Z,35.47
2019-03-05T17:08:35.534Z,35.15
2019-03-05T17:11:28.307Z,35.53
2019-03-05T17:13:58.851Z,35.10
2019-03-05T17:16:29.437Z,35.19
2019-03-05T17:18:59.898Z,34.41
2019-03-05T17:21:30.409Z,33.65
2019-03-05T17:24:01.668Z,34.83
2019-03-05T17:26:33.716Z,34.61
2019-03-05T17:29:04.852Z,34.73
2019-03-05T17:31:35.366Z,33.56
2019-03-05T17:34:05.950Z,33.97
2019-03-05T17:36:36.424Z,34.55
2019-03-05T17:39:11.377Z,33.33
2019-03-05T17:41:44.387Z,33.43
2019-03-05T17:44:15.261Z,33.94
2019-03-05T17:46:46.565Z,33.95
2019-03-05T17:49:17.087Z,34.18
2019-03-05T17:51:49.385Z,34.42
2019-03-05T17:54:21.353Z,35.09
2019-03-05T17:56:52.097Z,35.33
2019-03-05T17:59:24.373Z,34.85
2019-03-05T18:01:54.988Z,34.80
2019-03-05T18:04:25.816Z,35.02
2019-03-05T18:06:56.514Z,35.44
2019-03-05T18:09:28.373Z,35.49
2019-03-05T18:12:01.530Z,35.72
2019-03-05T18:14:33.092Z,35.52
2019-03-05T18:17:03.634Z,36.28
2019-03-05T18:19:34.443Z,36.05
2019-03-05T18:22:05.289Z,36.03
2019-03-05T18:24:36.740Z,35.75
2019-03-05T18:27:07.482Z,35.53
2019-03-05T18:29:38.733Z,35.12
2019-03-05T18:32:12.356Z,35.16
2019-03-05T18:34:43.045Z,35.02
2019-03-05T18:37:13.464Z,35.13
2019-03-05T18:39:46.005Z,34.60
2019-03-05T18:42:16.796Z,34.69
2019-03-05T18:44:48.815Z,35.24
2019-03-05T18:47:19.615Z,34.57
2019-03-05T18:49:50.271Z,34.96
2019-03-05T18:52:21.003Z,34.67
2019-03-05T18:54:52.964Z,34.78
2019-03-05T18:57:23.797Z,34.75
2019-03-05T18:59:54.443Z,35.56
2019-03-05T19:02:25.179Z,35.74
2019-03-05T19:04:55.970Z,35.99
2019-03-05T19:07:26.798Z,36.36
2019-03-05T19:09:57.222Z,36.69
2019-03-05T19:12:30.314Z,36.44
2019-03-05T19:15:04.138Z,36.21
2019-03-05T19:17:37.488Z,36.33
2019-03-05T19:20:11.743Z,36.37
2019-03-05T19:22:43.391Z,36.46
2019-03-05T19:25:20.441Z,36.83
2019-03-05T19:27:53.452Z,36.98
2019-03-05T19:30:28.813Z,37.08
2019-03-05T19:32:59.526Z,37.09
2019-03-05T19:35:29.999Z,37.06
2019-03-05T19:38:00.610Z,37.20
2019-03-05T19:40:33.876Z,37.19
2019-03-05T19:43:06.872Z,37.64
2019-03-05T19:45:37.475Z,38.30
2019-03-05T19:48:07.998Z,38.50
2019-03-05T19:50:38.543Z,37.95
2019-03-05T19:53:09.223Z,38.34
2019-03-05T19:55:39.995Z,37.91
2019-03-05T19:58:11.430Z,37.51
2019-03-05T20:01:12.482Z,38.29
2019-03-05T20:03:43.263Z,38.54
2019-03-05T20:06:14.993Z,39.15
2019-03-05T20:08:47.925Z,38.97
2019-03-05T20:11:18.609Z,38.75
2019-03-05T20:13:49.150Z,38.41
2019-03-05T20:16:20.797Z,38.37
2019-03-05T20:18:51.289Z,38.78
2019-03-05T20:21:21.848Z,39.15
2019-03-05T20:23:52.595Z,39.56
2019-03-05T20:26:23.140Z,40.26
2019-03-05T20:28:53.724Z,40.53
2019-03-05T20:31:27.258Z,40.48
2019-03-05T20:33:59.804Z,40.36
2019-03-05T20:36:30.661Z,40.49
2019-03-05T20:39:01.375Z,40.42
2019-03-05T20:41:31.952Z,41.05
2019-03-05T20:44:04.912Z,40.84
2019-03-05T20:46:35.470Z,40.59
2019-03-05T20:49:06.303Z,40.48
2019-03-05T20:51:36.945Z,40.62
2019-03-05T20:54:07.605Z,39.92
2019-03-05T20:56:40.659Z,40.25
2019-03-05T20:59:11.130Z,40.64
2019-03-05T21:01:41.934Z,41.27
2019-03-05T21:04:12.606Z,41.71
2019-03-05T21:06:43.425Z,41.66
2019-03-05T21:09:24.852Z,42.82
2019-03-05T21:11:55.667Z,45.61
2019-03-05T21:14:27.470Z,45.58
2019-03-05T21:16:58.398Z,46.83
2019-03-05T21:19:28.966Z,48.80
2019-03-05T21:21:59.240Z,49.83
2019-03-05T21:24:29.961Z,49.59
2019-03-05T21:27:02.018Z,49.85
2019-03-05T21:29:34.057Z,50.82
2019-03-05T21:32:04.892Z,50.97
2019-03-05T21:34:35.919Z,51.04
2019-03-05T21:37:06.746Z,51.55
2019-03-05T21:39:37.350Z,51.12
2019-03-05T21:42:09.784Z,51.13
2019-03-05T21:44:40.752Z,51.61
2019-03-05T21:47:11.494Z,51.40
2019-03-05T21:49:42.234Z,50.95
2019-03-05T21:52:12.653Z,51.41
2019-03-05T21:54:43.153Z,51.59
2019-03-05T21:57:13.936Z,51.91
2019-03-05T21:59:44.625Z,51.81
2019-03-05T22:02:15.426Z,52.08
2019-03-05T22:04:45.855Z,51.15
2019-03-05T22:07:16.584Z,47.87
2019-03-05T22:09:48.004Z,47.20
2019-03-05T22:12:18.408Z,46.84
2019-03-05T22:14:48.911Z,46.64
2019-03-05T22:17:19.530Z,45.93
2019-03-05T22:19:50.049Z,45.80
2019-03-05T22:22:20.525Z,45.42
2019-03-05T22:24:52.368Z,44.67
2019-03-05T22:27:25.194Z,45.18
2019-03-05T22:29:55.664Z,46.35
2019-03-05T22:32:26.426Z,47.09
2019-03-05T22:35:00.303Z,47.45
2019-03-05T22:37:30.856Z,47.07
2019-03-05T22:40:01.458Z,47.58
2019-03-05T22:42:32.171Z,47.76
2019-03-05T22:45:02.923Z,48.06
2019-03-05T22:47:33.662Z,48.02
2019-03-05T22:50:04.614Z,48.08
2019-03-05T22:52:36.458Z,48.35
2019-03-05T22:55:08.612Z,49.51
2019-03-05T22:57:42.449Z,49.57
2019-03-05T23:00:19.901Z,50.33
2019-03-05T23:02:51.019Z,50.33
2019-03-05T23:05:21.633Z,49.16
2019-03-05T23:07:52.339Z,49.78
2019-03-05T23:10:23.327Z,52.11
2019-03-05T23:12:55.664Z,49.39
2019-03-05T23:15:26.654Z,49.34
2019-03-05T23:17:57.278Z,49.18
2019-03-05T23:20:30.000Z,50.19
2019-03-05T23:23:00.504Z,51.25
2019-03-05T23:25:31.318Z,51.77
2019-03-05T23:28:01.781Z,53.74
2019-03-05T23:30:32.544Z,53.77
2019-03-05T23:33:03.028Z,55.29
2019-03-05T23:35:33.598Z,56.37
2019-03-05T23:38:06.323Z,57.43
2019-03-05T23:40:36.870Z,59.28
2019-03-05T23:43:07.797Z,60.27
2019-03-05T23:45:39.692Z,60.83
2019-03-05T23:48:10.575Z,62.02
2019-03-05T23:50:42.735Z,62.95
2019-03-05T23:53:13.081Z,64.01
2019-03-05T23:55:43.944Z,64.58
2019-03-05T23:58:14.853Z,65.48
